الرياض, السعودية

09:29 AM AST on دسمبر 20, 2014 (GMT +0300)
Riyadh Air Base | Change Station
CLOSE
Current Station
Airport
Location: Riyadh,
Elevation: 2034 ft
Nearby Weather Stations

Elev 2034 ft 24.71 °N, 46.73 °E | Updated 29 minutes ago

Clear
صافية
63 °F
Feels Like 63 °F
N
4
ريح متغير ريح from جنوب

هذا اليوم
High -- | Low -- °F
--% Chance of Precip.
Yesterday
High -- | Low -- °F
Precip. -- في
6:32 AM 5:08 PM
الهلال الأخير, 4% visible
الضغط 30.24 في
وضوح الرؤية -9999.0 أميال
سحابات
نقطة الندى 45 °F
الرطوبة 52%
Rainfall 0.00 في
عمق الثلج Not available.
الأشعة فوق البنفسجية Not available.
Pollen Not available.
جودة الهواء Not available.
Flu Activity Not available.
METAR OERY 200600Z 18003KT CAVOK 17/07 Q1024

More Conditions Fewer Conditions

الضغط 30.24 في
وضوح الرؤية -9999.0 أميال
سحابات
نقطة الندى 45 °F
الرطوبة 52%
Rainfall 0.00 في
عمق الثلج Not available.
الأشعة فوق البنفسجية Not available.
Pollen Not available.
جودة الهواء Not available.
Flu Activity Not available.
METAR OERY 200600Z 18003KT CAVOK 17/07 Q1024

More Conditions Fewer Conditions

10-Day Weather Forecast

Almanac

علم الفلك

Dec. 20, 2014 Rise Set
Actual Time
Civil Twilight
Nautical Twilight
Astronomical Twilight
قمر
Length Of Visible Light
طول الیوم
Tomorrow will be .
, % of the Moon is Illuminated

Today's Extremes

Country Highs Country Lows

Community

WunderPhotos

Upload Photos

1,779,144 photos uploaded!

WunderBlogs® & News

Nearby

جودة الهواء

  جودة الهواء AQ Index Pollutant
Not available.

عمق الثلج

Station Depth Elevation

Earthquake Activity

City Distance Mag. Time & Date
Minimum magnitude displayed is 2.5.

Coastal Water Temperatures

مكان درجات الحرارة

Nearby Weather Stations